Weather observations for the past three days for
Winona, Winona Municipal Airport-Max Conrad Field
Imperial (Metric)
Date Time (cdt) Wind (mph) Vis. (mi.) Weather Sky Cond. Temperature (ºF) Relative Humidity Wind Chill (°F) Heat Index (°F) Pressure Precipitation (in)
Air Dwpt 6 hour altimeter (in) sea level (mb) 1 hr 3 hr 6 hr
Max. Min.
10 14:15 NW 7 G 16 10.00 Mostly Cloudy SCT070 BKN080 59 32 36% 30.11 0.0
10 13:55 N 5 10.00 Partly Cloudy SCT070 SCT100 59 30.2 34% 30.11 0.0
10 13:35 NW 10 G 20 10.00 Partly Cloudy SCT075 SCT100 59 32 36% 30.12 0.0
10 13:15 N 6 10.00 Partly Cloudy SCT095 60.8 32 34% 30.12 0.0
10 12:55 N 14 G 20 10.00 Partly Cloudy SCT065 SCT095 60.8 32 34% 30.11 0.0
10 12:35 N 6 10.00 Mostly Cloudy SCT065 BKN095 59 32 36% 30.12 0.0
10 12:15 N 7 10.00 Partly Cloudy SCT065 SCT075 SCT095 55.4 30.2 38% 30.12 0.0
10 11:55 N 8 G 20 10.00 Partly Cloudy SCT095 59 30.2 34% 30.12 0.0
10 11:35 N 8 G 17 10.00 Partly Cloudy SCT090 57.2 28.4 33% 30.12 0.0
10 11:15 N 8 G 16 10.00 Partly Cloudy SCT090 55.4 30.2 38% 30.12 0.0
10 10:55 N 8 10.00 Partly Cloudy SCT090 SCT110 53.6 30.2 41% 30.12 0.0
10 10:35 Calm 10.00 Partly Cloudy SCT090 SCT110 51.8 32 47% 30.12 0.0
10 10:15 N 3 10.00 Partly Cloudy SCT085 SCT110 51.8 32 47% 30.12 0.0
10 09:55 NW 5 10.00 Partly Cloudy SCT110 51.8 30.2 44% 30.12 0.0
10 09:35 N 3 10.00 Mostly Cloudy BKN080 50 33.8 54% 30.11 0.0
10 09:15 Calm 10.00 Mostly Cloudy BKN080 BKN110 46.4 33.8 62% 30.11 0.0
10 08:55 Calm 10.00 Mostly Cloudy SCT080 BKN110 46.4 33.8 62% 30.11 0.0
10 08:35 NW 3 10.00 Mostly Cloudy BKN110 46.4 32 57% 30.11 0.0
10 08:15 NW 3 10.00 Partly Cloudy SCT110 44.6 32 61% 30.1 0.0
10 07:55 NW 3 10.00 Mostly Cloudy BKN110 42.8 32 66% 30.1 0.0
10 07:35 N 5 10.00 Partly Cloudy SCT100 42.8 33.8 71% 41 30.1 0.0
10 07:15 NW 6 10.00 Fair CLR 41 32 70% 38 30.09 0.0
10 06:55 Calm 10.00 Partly Cloudy SCT100 37.4 32 81% 30.08 0.0
10 06:35 W 3 10.00 Partly Cloudy SCT100 35.6 32 87% 30.08 0.0
10 06:15 Calm 10.00 Fair CLR 33.8 30.2 87% 30.07 0.0
10 05:55 Calm 10.00 Fair CLR 35.6 30.2 81% 30.06 0.0
10 05:35 Calm 10.00 Fair CLR 33.8 30.2 87% 30.06 0.0
10 05:15 Calm 10.00 Fair CLR 35.6 32 87% 30.05 0.0
10 04:55 NW 3 10.00 Fair CLR 35.6 30.2 81% 30.04 0.0
10 04:35 NW 3 10.00 Fair CLR 35.6 32 87% 30.03 0.0
10 04:15 Calm 10.00 Fair CLR 35.6 32 87% 30.03 0.0
10 03:55 Calm 10.00 Fair CLR 35.6 32 87% 30.03 0.0
10 03:35 Calm 10.00 Fair CLR 37.4 32 81% 30.02 0.0
10 03:15 Calm 10.00 Fair CLR 37.4 32 81% 30.01 0.0
10 02:55 NW 3 10.00 Partly Cloudy SCT090 37.4 32 81% 30 0.0
10 02:35 Calm 10.00 Mostly Cloudy BKN090 41 32 70% 30 0.0
10 02:15 Calm 10.00 Partly Cloudy SCT090 41 32 70% 30 0.0
10 01:55 Calm 10.00 Partly Cloudy SCT090 41 32 70% 30 0.0
10 01:35 Calm 10.00 Mostly Cloudy BKN090 41 32 70% 30 0.0
10 01:15 Calm 10.00 Mostly Cloudy BKN090 44.6 30.2 57% 29.99 0.0
10 00:55 NW 5 10.00 Mostly Cloudy BKN090 42.8 28.4 57% 41 29.99 0.0
10 00:35 Calm 10.00 Mostly Cloudy BKN090 41 30.2 66% 29.98 0.0
10 00:15 Calm 10.00 Partly Cloudy SCT090 42.8 30.2 61% 29.97 0.0
09 23:55 W 3 10.00 Mostly Cloudy BKN090 44.6 30.2 57% 29.96 0.0
09 23:35 NW 3 10.00 Mostly Cloudy BKN090 42.8 30.2 61% 29.95 0.0
09 23:15 NW 3 10.00 Partly Cloudy SCT090 44.6 30.2 57% 29.95 0.0
09 22:55 NW 3 10.00 Fair CLR 44.6 28.4 53% 29.94 0.0
09 22:35 Calm 10.00 Fair CLR 46.4 26.6 46% 29.94 0.0
09 22:15 Calm 10.00 Fair CLR 46.4 26.6 46% 29.93 0.0
09 21:55 W 3 10.00 Fair CLR 51.8 23 32% 29.92 0.0
09 21:35 W 3 10.00 Fair CLR 51.8 23 32% 29.91 0.0
09 21:15 W 5 10.00 Fair CLR 51.8 23 32% 29.9 0.0
09 20:55 NW 6 10.00 Fair CLR 51.8 21.2 30% 29.9 0.0
09 20:35 NW 9 10.00 Fair CLR 53.6 21.2 28% 29.89 0.0
09 20:15 NW 12 G 18 10.00 Fair CLR 53.6 19.4 26% 29.87 0.0
09 19:55 NW 10 G 23 10.00 Fair CLR 55.4 19.4 24% 29.86 0.0
09 19:35 NW 15 G 29 10.00 Fair CLR 57.2 19.4 23% 29.85 0.0
09 19:15 NW 16 G 23 10.00 Fair CLR 59 23 25% 29.84 0.0
09 18:55 NW 12 G 15 10.00 Fair CLR 59 24.8 27% 29.83 0.0
09 18:35 NW 13 10.00 Fair CLR 60.8 23 23% 29.82 0.0
09 18:15 NW 17 G 25 10.00 Fair CLR 60.8 21.2 22% 29.81 0.0
09 17:55 NW 18 G 25 10.00 Fair CLR 60.8 19.4 20% 29.81 0.0
09 17:35 NW 17 G 21 10.00 Fair CLR 60.8 24.8 25% 29.8 0.0
09 17:15 NW 17 G 25 10.00 Fair CLR 60.8 24.8 25% 29.79 0.0
09 16:55 NW 10 G 21 10.00 Fair CLR 60.8 26.6 27% 29.78 0.0
09 16:35 W 14 G 25 10.00 Fair CLR 62.6 26.6 25% 29.78 0.0
09 16:15 NW 20 G 26 10.00 Fair CLR 62.6 26.6 25% 29.78 0.0
09 15:55 NW 21 G 26 10.00 Fair and Breezy CLR 62.6 28.4 27% 29.77 0.0
09 15:35 NW 18 G 26 10.00 Fair CLR 62.6 26.6 25% 29.76 0.0
09 15:15 NW 17 G 26 10.00 Fair CLR 62.6 28.4 27% 29.76 0.0
09 14:55 NW 16 G 26 10.00 Fair CLR 62.6 30.2 30% 29.76 0.0
09 14:35 NW 22 G 29 10.00 Fair and Breezy CLR 62.6 30.2 30% 29.75 0.0
09 14:15 N 15 G 25 10.00 Partly Cloudy SCT070 60.8 30.2 31% 29.75 0.0
09 13:55 NW 16 G 25 10.00 Partly Cloudy SCT070 62.6 32 32% 29.75 0.0
09 13:35 NW 17 G 28 10.00 Partly Cloudy SCT070 62.6 32 32% 29.74 0.0
09 13:15 NW 15 G 24 10.00 Partly Cloudy SCT070 60.8 32 34% 29.74 0.0
09 12:55 N 17 G 26 10.00 Partly Cloudy SCT065 SCT075 60.8 33.8 36% 29.73 0.0
09 12:35 NW 15 G 23 10.00 Fair CLR 60.8 35.6 39% 29.73 0.0
09 12:15 NW 18 G 28 10.00 Fair CLR 60.8 35.6 39% 29.72 0.0
09 11:55 NW 14 G 24 10.00 Partly Cloudy SCT044 SCT050 SCT065 59 37.4 45% 29.72 0.0
09 11:35 NW 15 G 20 10.00 Mostly Cloudy BKN060 57.2 37.4 48% 29.72 0.0
09 11:15 NW 16 G 22 10.00 Partly Cloudy SCT060 59 37.4 45% 29.72 0.0
09 10:55 NW 15 G 24 10.00 Partly Cloudy SCT047 59 39.2 48% 29.71 0.0
09 10:35 NW 16 G 25 10.00 Partly Cloudy SCT036 SCT047 SCT055 55.4 37.4 51% 29.7 0.0
09 10:15 NW 17 G 24 10.00 Partly Cloudy SCT040 SCT046 SCT050 57.2 41 55% 29.69 0.0
09 09:55 NW 15 G 24 10.00 Mostly Cloudy BKN044 57.2 37.4 48% 29.68 0.0
09 09:35 N 17 G 23 10.00 Overcast OVC040 55.4 37.4 51% 29.67 0.0
09 09:15 N 5 10.00 Overcast OVC036 53.6 37.4 54% 29.66 0.0
09 08:55 NW 8 10.00 Mostly Cloudy BKN036 BKN043 BKN049 55.4 37.4 51% 29.65 0.0
09 08:35 NW 3 10.00 Partly Cloudy SCT075 53.6 33.8 47% 29.65 0.0
09 08:15 Calm 10.00 Overcast BKN060 OVC070 51.8 33.8 50% 29.65 0.0
09 07:55 Calm 10.00 Mostly Cloudy SCT060 BKN080 BKN100 51.8 35.6 54% 29.65 0.0
09 07:35 Calm 10.00 Mostly Cloudy BKN080 BKN085 48.2 37.4 66% 29.64 0.0
09 07:15 Calm 10.00 Fair CLR 48.2 39.2 71% 29.64 0.0
09 06:55 Calm 10.00 Fair CLR 46.4 35.6 66% 29.63 0.0
09 06:35 Calm 10.00 Fair CLR 46.4 35.6 66% 29.62 0.0
09 06:15 Calm 10.00 Partly Cloudy SCT090 46.4 35.6 66% 29.61 0.0
09 05:55 N 5 10.00 Partly Cloudy SCT090 42.8 35.6 76% 41 29.59 0.0
09 05:35 Calm 10.00 Fair CLR 42.8 33.8 71% 29.58 0.0
09 05:15 NW 3 10.00 Fair CLR 42.8 33.8 71% 29.59 0.0
09 04:55 Calm 10.00 Fair CLR 42.8 33.8 71% 29.6 0.0
09 04:35 Calm 10.00 Fair CLR 42.8 33.8 71% 29.59 0.0
09 04:15 Calm 10.00 Fair CLR 44.6 35.6 71% 29.6 0.0
09 03:55 Calm 10.00 Fair CLR 46.4 33.8 62% 29.6 0.0
09 03:35 Calm 10.00 Fair CLR 44.6 39.2 81% 29.6 0.0
09 03:15 Calm 10.00 Fair CLR 46.4 37.4 71% 29.6 0.0
09 02:55 Calm 10.00 Fair CLR 46.4 41 82% 29.6 0.0
09 02:35 Calm 10.00 Fair CLR 46.4 39.2 76% 29.61 0.0
09 02:15 Calm 10.00 Fair CLR 50 39.2 67% 29.6 0.0
09 01:55 Calm 10.00 Fair CLR 48.2 37.4 66% 29.6 0.0
09 01:35 NW 5 10.00 Fair CLR 53.6 30.2 41% 29.6 0.0
09 01:15 NW 6 10.00 Fair CLR 57.2 30.2 36% 29.61 0.0
09 00:55 W 6 10.00 Fair CLR 53.6 32 44% 29.6 0.0
09 00:35 NW 6 10.00 Fair CLR 50 33.8 54% 48 29.6 0.0
09 00:15 NW 6 10.00 Fair CLR 51.8 33.8 50% 29.6 0.0
08 23:55 NW 6 10.00 Fair CLR 50 35.6 58% 48 29.6 0.0
08 23:35 Calm 10.00 Fair CLR 51.8 39.2 62% 29.59 0.0
08 23:15 Calm 10.00 Fair CLR 51.8 41 67% 29.59 0.0
08 22:55 Calm 10.00 Fair CLR 50 37.4 62% 29.59 0.0
08 22:35 Calm 10.00 Fair CLR 51.8 42.8 72% 29.59 0.0
08 22:15 Calm 10.00 Fair CLR 53.6 39.2 58% 29.58 0.0
08 21:55 Calm 10.00 Fair CLR 53.6 37.4 54% 29.58 0.0
08 21:35 Calm 10.00 Fair CLR 55.4 35.6 47% 29.58 0.0
08 21:15 N 3 10.00 Partly Cloudy SCT120 60.8 33.8 36% 29.58 0.0
08 20:55 Calm 10.00 Partly Cloudy SCT120 64.4 32 30% 29.57 0.0
08 20:35 NW 5 10.00 Fair CLR 62.6 33.8 34% 29.57 0.0
08 20:15 W 7 10.00 Fair CLR 68 30.2 24% 29.56 0.0
08 19:55 W 6 10.00 Partly Cloudy SCT100 69.8 30.2 23% 29.57 0.0
08 19:35 W 12 G 17 10.00 Partly Cloudy SCT100 69.8 28.4 21% 29.56 0.0
08 19:15 W 6 10.00 Partly Cloudy SCT110 69.8 26.6 20% 29.56 0.0
08 18:55 W 3 10.00 Partly Cloudy SCT120 69.8 26.6 20% 29.57 0.0
08 18:35 W 3 10.00 Partly Cloudy SCT120 69.8 24.8 18% 29.57 0.0
08 18:15 W 3 10.00 Partly Cloudy SCT110 69.8 24.8 18% 29.58 0.0
08 17:55 W 9 10.00 Fair CLR 69.8 24.8 18% 29.59 0.0
08 17:35 W 8 G 18 10.00 Fair CLR 71.6 24.8 17% 29.6 0.0
08 17:15 W 7 10.00 Fair CLR 71.6 24.8 17% 29.6 0.0
08 16:55 W 10 10.00 Fair CLR 71.6 26.6 19% 29.6 0.0
08 16:35 W 9 G 20 10.00 Fair CLR 69.8 24.8 18% 29.62 0.0
08 16:15 W 8 G 17 10.00 Partly Cloudy SCT110 69.8 23 17% 29.62 0.0
08 15:55 W 8 G 20 10.00 Fair CLR 69.8 23 17% 29.62 0.0
08 15:35 W 6 G 22 10.00 Fair CLR 71.6 23 16% 29.63 0.0
08 15:15 W 9 G 21 10.00 Partly Cloudy SCT110 71.6 24.8 17% 29.64 0.0
08 14:55 NW 14 G 20 10.00 Partly Cloudy SCT120 69.8 24.8 18% 29.65 0.0
08 14:35 W 6 10.00 Partly Cloudy SCT110 69.8 24.8 18% 29.66 0.0
08 14:15 NW 15 G 25 10.00 Partly Cloudy SCT110 69.8 24.8 18% 29.67 0.0
08 13:55 SW 8 10.00 Fair CLR 68 23 18% 29.68 0.0
08 13:35 W 9 G 24 10.00 Partly Cloudy SCT120 68 23 18% 29.69 0.0
08 13:15 SW 9 10.00 Partly Cloudy SCT120 69.8 23 17% 29.7 0.0
08 12:55 SW 5 10.00 Partly Cloudy SCT110 68 23 18% 29.7 0.0
08 12:35 W 8 10.00 Partly Cloudy SCT110 69.8 26.6 20% 29.72 0.0
08 12:15 W 10 10.00 Fair CLR 68 23 18% 29.72 0.0
08 11:55 SW 12 G 16 10.00 Partly Cloudy SCT110 64.4 23 21% 29.74 0.0
08 11:39 SW 7 10.00 Partly Cloudy SCT110 64.4 24.8 22% 29.74 0.0
08 11:15 SW 8 10.00 Fair CLR 64.4 26.6 24% 29.75 0.0
08 10:55 W 8 10.00 Fair CLR 64.4 26.6 24% 29.76 0.0
08 10:35 SW 7 10.00 Fair CLR 62.6 26.6 25% 29.76 0.0
08 10:15 SW 5 10.00 Fair CLR 62.6 26.6 25% 29.77 0.0
08 09:55 SW 7 10.00 Fair CLR 60.8 26.6 27% 29.78 0.0
08 09:35 W 6 10.00 Fair CLR 59 26.6 29% 29.78 0.0
08 09:15 SW 6 10.00 Fair CLR 55.4 24.8 31% 29.79 0.0
08 08:55 SW 3 0.75 Sky Obscured with Haze VV005 55.4 26.6 33% 29.8 0.0
08 08:35 S 6 10.00 Fair CLR 51.8 23 32% 29.8 0.0
08 08:15 Calm 10.00 Fair CLR 51.8 23 32% 29.8 0.0
08 07:55 E 3 10.00 Fair CLR 50 24.8 37% 29.81 0.0
08 07:35 SE 3 10.00 Fair CLR 48.2 23 37% 29.81 0.0
08 07:15 Calm 10.00 Fair CLR 46.4 23 40% 29.8 0.0
08 06:55 Calm 10.00 Fair CLR 42.8 26.6 53% 29.8 0.0
08 06:35 Calm 10.00 Fair CLR 41 26.6 57% 29.8 0.0
08 06:15 Calm 10.00 Fair CLR 41 26.6 57% 29.8 0.0
08 05:55 Calm 10.00 Fair CLR 37.4 32 81% 29.8 0.0
08 05:35 Calm 10.00 Fair CLR 33.8 32 93% 29.8 0.0
08 05:15 Calm 10.00 Fair CLR 33.8 30.2 87% 29.81 0.0
08 04:55 Calm 10.00 Fair CLR 33.8 30.2 87% 29.81 0.0
08 04:35 Calm 10.00 Fair CLR 33.8 32 93% 29.81 0.0
08 04:15 Calm 10.00 Fair CLR 32 30.2 93% 29.81 0.0
08 03:55 Calm 10.00 Fair CLR 32 30.2 93% 29.82 0.0
08 03:35 Calm 10.00 Fair CLR 33.8 30.2 87% 29.82 0.0
08 03:15 Calm 10.00 Fair CLR 33.8 30.2 87% 29.82 0.0
08 02:55 Calm 10.00 Fair CLR 33.8 30.2 87% 29.82 0.0
08 02:35 Calm 10.00 Fair CLR 33.8 30.2 87% 29.82 0.0
08 02:15 Calm 10.00 Fair CLR 33.8 30.2 87% 29.83 0.0
08 01:55 Calm 10.00 Fair CLR 35.6 30.2 81% 29.83 0.0
08 01:35 Calm 10.00 Fair CLR 35.6 30.2 81% 29.84 0.0
08 01:15 Calm 10.00 Fair CLR 35.6 30.2 81% 29.84 0.0
08 00:55 Calm 10.00 Fair CLR 35.6 30.2 81% 29.85 0.0
08 00:35 Calm 10.00 Fair CLR 35.6 30.2 81% 29.85 0.0
08 00:15 Calm 10.00 Fair CLR 37.4 30.2 75% 29.85 0.0
07 23:55 Calm 10.00 Fair CLR 37.4 30.2 75% 29.85 0.0
07 23:35 Calm 10.00 Fair CLR 39.2 30.2 70% 29.85 0.0
07 23:15 Calm 10.00 Fair CLR 37.4 30.2 75% 29.86 0.0
07 22:55 Calm 10.00 Fair CLR 41 28.4 61% 29.86 0.0
07 22:35 Calm 10.00 Fair CLR 41 28.4 61% 29.86 0.0
07 22:15 Calm 10.00 Fair CLR 41 30.2 66% 29.86 0.0
07 21:55 Calm 10.00 Fair CLR 42.8 26.6 53% 29.85 0.0
07 21:35 Calm 10.00 Fair CLR 42.8 28.4 57% 29.85 0.0
07 21:15 Calm 10.00 Fair CLR 44.6 26.6 49% 29.85 0.0
07 20:55 Calm 10.00 Fair CLR 46.4 26.6 46% 29.85 0.0
07 20:35 Calm 10.00 Fair CLR 46.4 26.6 46% 29.84 0.0
07 20:15 Calm 10.00 Fair CLR 50 23 35% 29.84 0.0
07 19:55 NW 3 10.00 Fair CLR 51.8 21.2 30% 29.83 0.0
07 19:35 NW 5 10.00 Fair CLR 53.6 21.2 28% 29.83 0.0
07 19:15 NW 8 10.00 Fair CLR 53.6 19.4 26% 29.83 0.0
07 18:55 N 12 10.00 Fair CLR 55.4 21.2 26% 29.83 0.0
07 18:35 NW 10 10.00 Fair CLR 55.4 21.2 26% 29.83 0.0
07 18:15 N 6 10.00 Fair CLR 55.4 21.2 26% 29.83 0.0
07 17:55 NW 12 10.00 Fair CLR 55.4 19.4 24% 29.83 0.0
07 17:35 N 5 10.00 Fair CLR 55.4 19.4 24% 29.83 0.0
07 17:15 NW 9 10.00 Fair CLR 55.4 19.4 24% 29.83 0.0
07 16:55 N 9 10.00 Fair CLR 55.4 19.4 24% 29.83 0.0
07 16:35 N 9 G 16 10.00 Fair CLR 57.2 21.2 25% 29.83 0.0
07 16:15 N 12 G 18 10.00 Fair CLR 57.2 21.2 25% 29.84 0.0
07 15:55 N 12 G 18 10.00 Fair CLR 55.4 21.2 26% 29.84 0.0
07 15:35 N 10 10.00 Fair CLR 55.4 21.2 26% 29.85 0.0
07 15:15 N 10 G 17 10.00 Fair CLR 55.4 21.2 26% 29.85 0.0
07 14:55 N 7 G 17 10.00 Fair CLR 55.4 21.2 26% 29.85 0.0
07 14:35 N 9 G 18 10.00 Fair CLR 55.4 21.2 26% 29.85 0.0
Date Time (cdt) Wind (mph) Vis. (mi.) Weather Sky Cond. Air Dwpt Max. Min. Relative Humidity Wind Chill (°F) Heat Index (°F) altimeter (in) sea level (mb) 1 hr 3 hr 6 hr
6 hour
Temperature (ºF) Pressure Precipitation (in)